Lake Wales, FL (33853)

8:43 PM EST on February 06, 2016 (GMT -0500)
Country Oaks | | Change Station
CLOSE
Current Station
Personal Weather Station
Location: Lake Wales, FL
Elevation: 128 ft
Nearby Weather Stations

Elev 128 ft 27.92 °N, 81.53 °W | Updated 8 minutes ago

Mostly Cloudy
Mostly Cloudy
54.1 °F
Feels Like 54.1 °F
N
2.2
Wind Variable Wind from WNW

Today
High -- | Low -- °F
--% Chance of Precip.
Yesterday
High -- | Low -- °F
Precip. -- in
Pressure 30.08 in
Visibility 5.0 miles
Clouds Few 100 ft
Overcast 600 ft
Dew Point 54 °F
Humidity 99%
Rainfall 0.49 in
Snow Depth Not available.
7:10 AM 6:10 PM
Waning Crescent, 3% visible
METAR KBOW 070135Z AUTO 30010KT 5SM RA FEW001 OVC006 10/10 A3008 RMK AO2
Pressure 30.08 in
Visibility 5.0 miles
Clouds Few 100 ft
Overcast 600 ft
Dew Point 54 °F
Humidity 99%
Rainfall 0.49 in
Snow Depth Not available.
7:10 AM 6:10 PM
Waning Crescent, 3% visible
METAR KBOW 070135Z AUTO 30010KT 5SM RA FEW001 OVC006 10/10 A3008 RMK AO2

10-Day Weather Forecast

Almanac

Astronomy

Feb. 06, 2016 Rise Set
Actual Time
Civil Twilight
Nautical Twilight
Astronomical Twilight
Moon
Length of Visible Light
Length of Day
Tomorrow will be .
, % of the Moon is Illuminated

Today's Extremes

State Highs State Lows

Community

WunderPhotos

Upload Photos

1,891,123 photos uploaded!

WunderBlog® & News

Nearby

Air Quality

  Air Quality AQ Index Pollutant
Not available.

Snow Depth

Station Depth Elevation

Earthquake Activity

City Distance Mag. Time & Date
Minimum magnitude displayed is 2.5.

Coastal Water Temperatures

Place Temperature

Stations

Nearby Weather Stations

Station Location Temp. Windchill Dew Point Humidity Wind Precip. Elev Updated Type
                   

Watches & Warnings

There are currently no watches in effect.